Time;durP1;ratioP1;P1;durP2;ratioP2;P2;SDS_P1;SDS_P2;PMS_P1;PMS_P2;Temp;Humidity;BMP_temperature;BMP_pressure;BME280_temperature;BME280_humidity;BME280_pressure;Samples;Min_cycle;Max_cycle;Signal;HPM_P1;HPM_P2
2022/04/26 03:37:55;;;;;;;55.90;27.33;;;;;;;13.01;67.48;98239.63;4948609;28;20042;-82
2022/04/26 03:40:21;;;;;;;;;;;;;;;13.07;67.77;98243.00;4954496;28;20047;-82
2022/04/26 03:42:47;;;;;;;60.30;26.98;;;;;;;12.99;67.96;98241.91;4972715;28;20448;-77
2022/04/26 03:45:13;;;;;;;66.95;27.73;;;;;;;13.02;68.15;98241.25;4973574;28;20090;-75
2022/04/26 03:47:39;;;;;;;72.60;28.23;;;;;;;13.01;68.11;98234.16;4960735;28;20061;-75
2022/04/26 03:50:06;;;;;;;63.15;29.38;;;;;;;13.12;67.85;98239.28;4973861;28;20150;-76
2022/04/26 03:52:33;;;;;;;78.45;29.75;;;;;;;13.09;68.04;98248.97;4957187;28;20134;-76
2022/04/26 03:55:01;;;;;;;63.08;29.17;;;;;;;13.05;68.14;98240.63;4964402;28;20054;-76
2022/04/26 03:57:30;;;;;;;65.20;29.70;;;;;;;13.18;68.04;98249.75;4955914;28;20046;-76
2022/04/26 03:59:57;;;;;;;73.30;31.10;;;;;;;13.16;67.59;98249.28;4954702;28;20150;-76
2022/04/26 04:02:24;;;;;;;69.05;30.65;;;;;;;13.25;67.66;98248.41;4955618;28;20503;-75
2022/04/26 04:04:50;;;;;;;60.97;29.13;;;;;;;13.30;67.35;98240.81;4943463;28;20406;-75
2022/04/26 04:07:16;;;;;;;67.57;30.65;;;;;;;13.44;67.11;98253.53;4953381;28;20047;-76
2022/04/26 04:09:43;;;;;;;73.88;31.90;;;;;;;13.36;67.26;98251.63;4959108;28;20042;-74
2022/04/26 04:12:11;;;;;;;73.68;32.85;;;;;;;13.33;67.72;98255.81;4936912;28;20059;-76
2022/04/26 04:14:37;;;;;;;71.35;31.40;;;;;;;13.24;67.37;98236.66;4948465;29;20055;-76
2022/04/26 04:17:04;;;;;;;83.85;32.88;;;;;;;13.39;67.38;98253.69;4972019;28;20508;-76
2022/04/26 04:19:30;;;;;;;78.85;32.40;;;;;;;13.36;67.23;98255.16;4938741;28;20054;-75
2022/04/26 04:21:56;;;;;;;84.75;37.70;;;;;;;13.27;67.32;98254.41;4954426;28;20747;-74
2022/04/26 04:24:22;;;;;;;114.78;45.03;;;;;;;13.31;67.50;98253.38;4938372;28;20153;-74
2022/04/26 04:26:49;;;;;;;119.18;47.67;;;;;;;13.23;67.75;98254.25;4960866;28;20155;-76
2022/04/26 04:29:15;;;;;;;131.80;48.22;;;;;;;13.27;67.62;98260.69;4988851;28;20054;-76
2022/04/26 04:31:42;;;;;;;130.67;49.63;;;;;;;13.23;67.53;98257.00;4975839;28;20055;-76
2022/04/26 04:34:08;;;;;;;107.72;43.72;;;;;;;13.19;68.01;98262.34;4970845;28;20451;-76
2022/04/26 04:36:34;;;;;;;103.72;41.58;;;;;;;13.20;67.77;98257.66;4973001;28;20421;-76
2022/04/26 04:39:03;;;;;;;80.60;38.50;;;;;;;13.27;67.72;98257.94;4956603;28;20062;-75
2022/04/26 04:41:35;;;;;;;99.25;41.70;;;;;;;13.30;67.58;98249.03;4956449;28;20042;-76
2022/04/26 04:44:08;;;;;;;95.97;39.40;;;;;;;13.38;67.49;98258.34;4977241;28;20102;-78
2022/04/26 04:46:35;;;;;;;96.57;36.72;;;;;;;13.42;67.22;98255.75;4931895;28;20047;-76
2022/04/26 04:49:01;;;;;;;83.55;36.60;;;;;;;13.38;67.32;98252.09;4935330;28;20134;-78
2022/04/26 04:51:27;;;;;;;87.70;39.33;;;;;;;13.38;67.36;98252.88;4957168;28;20051;-77
2022/04/26 04:53:54;;;;;;;83.38;38.95;;;;;;;13.36;67.49;98255.16;4971202;28;20508;-77
2022/04/26 04:56:20;;;;;;;82.20;37.17;;;;;;;13.43;67.06;98254.63;4952596;28;20050;-78
2022/04/26 04:58:47;;;;;;;97.97;37.20;;;;;;;13.40;67.08;98247.06;4972439;28;20096;-78
2022/04/26 05:01:14;;;;;;;89.40;33.73;;;;;;;13.46;67.10;98248.50;4963580;28;20054;-77
2022/04/26 05:03:41;;;;;;;87.82;35.53;;;;;;;13.36;66.96;98229.66;4980195;28;20046;-77
2022/04/26 05:06:07;;;;;;;82.90;35.38;;;;;;;13.45;67.07;98242.22;4969529;28;20058;-76
2022/04/26 05:08:33;;;;;;;84.75;34.60;;;;;;;13.43;67.17;98243.66;4971168;28;20062;-77
2022/04/26 05:11:00;;;;;;;82.03;33.97;;;;;;;13.50;66.68;98243.94;4957981;28;20078;-75
2022/04/26 05:13:27;;;;;;;71.63;31.30;;;;;;;13.50;66.41;98243.16;4949708;28;20306;-76
2022/04/26 05:15:52;;;;;;;73.93;33.83;;;;;;;13.50;66.47;98243.16;4951561;28;20550;-73
2022/04/26 05:18:19;;;;;;;70.70;33.80;;;;;;;13.50;66.05;98240.41;4957674;28;20051;-76
2022/04/26 05:20:45;;;;;;;91.33;35.40;;;;;;;13.56;66.09;98244.56;4970178;28;20052;-75
2022/04/26 05:25:57;;;;;;;82.22;31.85;;;;;;;13.64;66.28;98238.22;4971500;28;20216;-76
2022/04/26 05:28:23;;;;;;;85.60;33.67;;;;;;;13.67;65.61;98234.81;4972858;28;20055;-76
2022/04/26 05:30:52;;;;;;;80.45;34.35;;;;;;;13.74;65.34;98237.00;4960305;28;20051;-76
2022/04/26 05:33:18;;;;;;;76.32;33.63;;;;;;;13.76;65.17;98232.00;4956330;28;20405;-76
2022/04/26 05:35:45;;;;;;;74.97;31.38;;;;;;;13.82;65.25;98230.66;4956559;28;20051;-77
2022/04/26 05:38:11;;;;;;;79.15;33.35;;;;;;;13.79;65.20;98216.78;4951746;28;20046;-75
2022/04/26 05:40:37;;;;;;;80.85;34.17;;;;;;;13.89;65.14;98225.44;4969691;28;20062;-76
2022/04/26 05:43:03;;;;;;;75.63;34.85;;;;;;;13.90;65.00;98229.00;4970304;28;20539;-76
2022/04/26 05:45:29;;;;;;;83.32;36.10;;;;;;;13.94;65.19;98227.19;4971246;28;20077;-76
2022/04/26 05:47:56;;;;;;;72.13;31.73;;;;;;;13.97;64.88;98225.69;4959264;28;20118;-75
2022/04/26 05:50:23;;;;;;;77.28;37.80;;;;;;;13.97;64.84;98226.50;4972217;28;20050;-76
2022/04/26 05:52:50;;;;;;;83.07;37.00;;;;;;;13.94;64.78;98223.63;4953807;28;20507;-73
2022/04/26 05:55:16;;;;;;;87.65;34.67;;;;;;;13.96;64.84;98221.34;4969056;28;20078;-73
2022/04/26 05:57:43;;;;;;;75.72;34.22;;;;;;;14.03;64.77;98218.84;4974513;28;20069;-73
2022/04/26 06:00:10;;;;;;;72.05;33.28;;;;;;;14.13;64.45;98220.38;4971116;28;20057;-72
2022/04/26 06:02:40;;;;;;;67.25;33.13;;;;;;;14.11;64.15;98215.22;4981190;28;20042;-75
2022/04/26 06:05:09;;;;;;;79.88;32.88;;;;;;;14.20;63.69;98217.88;4974766;28;20206;-73
2022/04/26 06:07:35;;;;;;;83.03;33.38;;;;;;;14.22;63.28;98223.06;4973289;28;20055;-74
2022/04/26 06:10:04;;;;;;;72.90;30.85;;;;;;;14.26;63.54;98227.53;4953801;28;20049;-74
2022/04/26 06:12:31;;;;;;;67.40;30.05;;;;;;;14.29;63.44;98217.84;4956303;28;20587;-75
2022/04/26 06:14:58;;;;;;;58.45;28.80;;;;;;;14.33;62.95;98218.75;4971280;28;20047;-74
2022/04/26 06:17:25;;;;;;;61.85;27.60;;;;;;;14.38;62.96;98220.50;4935884;28;20550;-73
2022/04/26 06:19:51;;;;;;;66.03;27.63;;;;;;;14.39;62.27;98225.63;4953840;28;20530;-72
2022/04/26 06:22:18;;;;;;;54.63;25.55;;;;;;;14.39;61.89;98220.13;4968043;28;20047;-73
2022/04/26 06:24:44;;;;;;;69.65;25.88;;;;;;;14.44;61.61;98217.19;4955279;28;20059;-73
2022/04/26 06:27:11;;;;;;;58.17;26.70;;;;;;;14.48;61.84;98219.25;4977854;28;20117;-74
2022/04/26 06:29:37;;;;;;;59.80;27.95;;;;;;;14.58;61.71;98227.88;4955020;28;20050;-74
2022/04/26 06:32:04;;;;;;;61.33;26.77;;;;;;;14.64;61.34;98224.91;4972862;28;20082;-74
2022/04/26 06:34:31;;;;;;;61.45;28.90;;;;;;;14.71;61.46;98244.41;4963744;28;20444;-75
2022/04/26 06:36:58;;;;;;;56.72;25.52;;;;;;;14.84;61.15;98237.81;4943148;28;20113;-74
2022/04/26 06:39:24;;;;;;;59.97;26.23;;;;;;;14.88;61.34;98240.69;4955598;28;20141;-73
2022/04/26 06:41:50;;;;;;;63.75;27.83;;;;;;;15.08;61.23;98255.50;4931614;28;20050;-73
2022/04/26 06:44:20;;;;;;;56.60;26.27;;;;;;;15.21;61.03;98253.53;4973555;28;20051;-78
2022/04/26 06:47:17;;;;;;;56.22;27.77;;;;;;;15.07;60.82;98237.38;4954545;28;20179;-80
2022/04/26 06:49:46;;;;;;;48.72;25.70;;;;;;;14.91;60.22;98211.69;4951894;28;20057;-78
2022/04/26 06:52:13;;;;;;;46.53;24.25;;;;;;;14.97;59.80;98230.38;4939480;28;20144;-73
2022/04/26 06:54:39;;;;;;;48.80;25.57;;;;;;;15.05;58.91;98256.19;4953533;28;20105;-73
2022/04/26 06:57:06;;;;;;;47.95;22.48;;;;;;;14.97;59.23;98246.06;4971355;28;20329;-75
2022/04/26 06:59:34;;;;;;;53.30;22.52;;;;;;;15.03;58.83;98263.97;4967739;28;20055;-75
2022/04/26 07:02:00;;;;;;;40.65;18.90;;;;;;;15.09;58.15;98256.31;4973170;28;20053;-75
2022/04/26 07:04:27;;;;;;;49.45;20.17;;;;;;;15.08;57.73;98258.25;4938198;28;20459;-76
2022/04/26 07:06:53;;;;;;;49.75;21.25;;;;;;;15.14;57.78;98262.41;4939736;28;20042;-74
2022/04/26 07:09:20;;;;;;;48.38;22.08;;;;;;;15.23;57.76;98251.28;4950540;28;20054;-74
2022/04/26 07:11:46;;;;;;;53.40;19.02;;;;;;;15.33;57.60;98263.78;4969981;28;20053;-73
2022/04/26 07:14:13;;;;;;;39.10;18.20;;;;;;;15.32;57.42;98253.91;4952067;28;20538;-74
2022/04/26 07:16:40;;;;;;;41.83;18.08;;;;;;;15.28;57.39;98269.50;4954359;28;20054;-74
2022/04/26 07:19:06;;;;;;;51.63;20.70;;;;;;;14.92;58.39;98255.38;4985959;28;20042;-74
2022/04/26 07:21:32;;;;;;;42.25;19.50;;;;;;;14.98;58.52;98264.19;4978404;28;20058;-73
2022/04/26 07:23:58;;;;;;;39.72;20.80;;;;;;;15.01;58.24;98266.28;4962650;28;20054;-74
2022/04/26 07:26:24;;;;;;;47.85;20.65;;;;;;;14.98;58.61;98269.69;4973652;28;20531;-74
2022/04/26 07:28:51;;;;;;;48.17;20.67;;;;;;;14.87;58.71;98261.09;4969268;28;20046;-74
2022/04/26 07:31:17;;;;;;;44.70;21.00;;;;;;;14.90;58.71;98263.13;4961001;28;20045;-73
2022/04/26 07:36:29;;;;;;;41.80;19.65;;;;;;;15.08;58.37;98251.94;4970067;28;20054;-74
2022/04/26 07:38:55;;;;;;;42.28;19.17;;;;;;;15.13;57.67;98251.72;4991266;28;20452;-75
2022/04/26 07:41:21;;;;;;;41.70;17.30;;;;;;;15.15;56.81;98247.50;4984723;28;20133;-73
2022/04/26 07:43:48;;;;;;;35.00;15.40;;;;;;;15.29;56.33;98252.66;4961136;28;20098;-78
2022/04/26 07:46:15;;;;;;;47.15;19.90;;;;;;;15.38;55.95;98254.50;4955411;28;20574;-77
2022/04/26 07:48:43;;;;;;;35.88;16.80;;;;;;;15.45;55.19;98244.50;4951630;28;20062;-79
2022/04/26 07:51:11;;;;;;;36.55;14.57;;;;;;;15.52;54.80;98254.13;4961295;28;20062;-78
2022/04/26 07:53:38;;;;;;;33.15;15.40;;;;;;;15.55;54.51;98262.50;4938899;28;20078;-78
2022/04/26 07:56:05;;;;;;;38.85;15.93;;;;;;;15.46;54.36;98248.03;4972756;28;20488;-77
2022/04/26 07:58:32;;;;;;;43.30;16.45;;;;;;;15.47;54.48;98255.16;4952510;28;20065;-77
2022/04/26 08:00:58;;;;;;;33.17;14.68;;;;;;;15.39;54.27;98264.34;4922061;28;20051;-76
2022/04/26 08:03:25;;;;;;;31.75;14.23;;;;;;;15.23;53.88;98270.53;4938616;28;20061;-76
2022/04/26 08:05:52;;;;;;;40.45;13.73;;;;;;;15.19;54.04;98261.34;4952837;28;20157;-77
2022/04/26 08:08:20;;;;;;;36.47;15.48;;;;;;;15.25;54.51;98256.41;4963873;28;20047;-76
2022/04/26 08:10:46;;;;;;;33.97;15.38;;;;;;;15.22;54.32;98271.69;4954816;28;20054;-77
2022/04/26 08:13:12;;;;;;;39.17;17.50;;;;;;;15.17;54.62;98260.88;4977737;28;20055;-76
2022/04/26 08:15:39;;;;;;;34.70;16.52;;;;;;;15.10;54.92;98261.47;4969642;28;20070;-76
2022/04/26 08:18:06;;;;;;;37.75;18.00;;;;;;;15.08;55.09;98263.75;4954420;28;20530;-77
2022/04/26 08:20:33;;;;;;;33.78;16.27;;;;;;;15.19;55.44;98266.84;4971161;28;20077;-77
2022/04/26 08:22:59;;;;;;;34.67;15.50;;;;;;;15.30;55.41;98259.75;4970168;28;20096;-77
2022/04/26 08:28:11;;;;;;;33.45;15.13;;;;;;;15.49;55.04;98261.13;4972312;28;20061;-77
2022/04/26 08:30:38;;;;;;;43.05;15.68;;;;;;;15.59;54.69;98257.09;4970074;28;20512;-77
2022/04/26 08:33:04;;;;;;;34.95;15.75;;;;;;;15.52;54.75;98243.09;4952730;28;20551;-78
2022/04/26 08:35:31;;;;;;;47.05;15.27;;;;;;;15.66;54.65;98265.59;4950084;28;20113;-78
2022/04/26 08:37:57;;;;;;;32.45;14.25;;;;;;;15.70;54.54;98272.00;4921454;28;20063;-76
2022/04/26 08:40:23;;;;;;;36.70;14.77;;;;;;;15.67;54.33;98271.88;4910617;29;20043;-78
2022/04/26 08:42:51;;;;;;;33.47;14.32;;;;;;;15.69;53.88;98267.66;4965169;28;20123;-77
2022/04/26 08:45:21;;;;;;;35.47;13.90;;;;;;;15.74;53.48;98261.88;4970260;28;20074;-77
2022/04/26 08:53:21;;;;;;;31.80;15.65;;;;;;;15.58;52.89;98259.06;4953163;28;20051;-77
2022/04/26 08:55:48;;;;;;;34.97;15.02;;;;;;;15.68;53.23;98254.22;4970365;28;20074;-78
2022/04/26 08:58:18;;;;;;;26.17;14.32;;;;;;;15.67;53.46;98245.16;4951334;28;20141;-77
2022/04/26 09:01:06;;;;;;;31.73;14.35;;;;;;;15.83;53.31;98253.50;4933309;28;20133;-78
2022/04/26 09:03:35;;;;;;;34.33;13.00;;;;;;;15.97;52.80;98250.41;4951368;28;20431;-79
2022/04/26 09:06:08;;;;;;;25.60;12.68;;;;;;;16.05;52.67;98247.84;4969655;28;20061;-78
2022/04/26 09:08:35;;;;;;;29.75;12.20;;;;;;;16.13;52.21;98253.22;4968334;28;20105;-78
2022/04/26 09:11:02;;;;;;;25.42;11.85;;;;;;;16.16;51.57;98248.97;4947711;29;20047;-78
2022/04/26 09:13:38;;;;;;;23.63;11.45;;;;;;;16.16;50.71;98255.28;4956762;28;20089;-77
2022/04/26 09:16:06;;;;;;;29.52;10.52;;;;;;;16.12;50.57;98268.16;4954433;28;20102;-76
2022/04/26 09:18:32;;;;;;;22.13;8.93;;;;;;;16.15;50.36;98255.63;4953558;28;20051;-77
2022/04/26 09:21:08;;;;;;;24.30;10.57;;;;;;;16.13;50.45;98252.44;4931935;28;20042;-77
2022/04/26 09:23:34;;;;;;;19.63;8.02;;;;;;;16.13;49.31;98258.72;4968517;28;20046;-78
2022/04/26 09:26:12;;;;;;;21.92;7.93;;;;;;;16.10;49.06;98250.38;4953183;28;20049;-78
2022/04/26 09:28:42;;;;;;;18.65;8.65;;;;;;;16.09;49.11;98251.53;4970264;28;20423;-78
2022/04/26 09:31:20;;;;;;;25.88;10.60;;;;;;;16.04;48.83;98262.78;4969705;28;20051;-77
2022/04/26 09:33:47;;;;;;;25.33;9.95;;;;;;;16.13;49.53;98250.44;4970952;28;20059;-79
2022/04/26 09:36:15;;;;;;;22.70;10.07;;;;;;;16.08;49.71;98238.88;4971363;28;20053;-78
2022/04/26 09:38:49;;;;;;;20.65;9.43;;;;;;;16.05;49.46;98253.34;4949914;28;20042;-79
2022/04/26 09:41:15;;;;;;;20.63;8.70;;;;;;;16.04;49.01;98262.78;4970728;28;20054;-78
2022/04/26 09:43:43;;;;;;;22.02;8.05;;;;;;;15.96;48.82;98259.00;4970443;28;20431;-78
2022/04/26 09:46:09;;;;;;;21.77;9.05;;;;;;;16.06;48.94;98250.25;4923062;28;20054;-78
2022/04/26 09:48:37;;;;;;;18.98;8.48;;;;;;;16.14;48.77;98251.28;4970075;28;20141;-78
2022/04/26 09:51:04;;;;;;;20.02;8.55;;;;;;;16.13;48.49;98253.22;4968135;28;20050;-78
2022/04/26 09:53:31;;;;;;;20.80;8.75;;;;;;;16.09;48.04;98249.56;4973562;28;20050;-77
2022/04/26 09:55:58;;;;;;;23.98;9.75;;;;;;;15.95;48.48;98254.66;4951149;28;20042;-78
2022/04/26 09:58:29;;;;;;;22.30;9.55;;;;;;;15.95;48.41;98249.13;4970574;28;20086;-77
2022/04/26 10:01:00;;;;;;;23.25;8.60;;;;;;;15.84;48.29;98257.06;4969252;28;20059;-77
2022/04/26 10:03:31;;;;;;;20.38;8.13;;;;;;;15.89;47.53;98265.09;4970623;28;20077;-78
2022/04/26 10:06:00;;;;;;;14.43;6.43;;;;;;;15.78;47.62;98269.50;4969643;28;20074;-79
2022/04/26 10:08:29;;;;;;;14.38;6.60;;;;;;;15.78;47.42;98275.78;4971396;28;20058;-76
2022/04/26 10:10:56;;;;;;;16.80;6.97;;;;;;;15.77;47.06;98276.16;4972401;28;20054;-78
2022/04/26 10:13:34;;;;;;;22.75;9.35;;;;;;;15.69;47.50;98262.13;4956708;28;20134;-76
2022/04/26 10:16:04;;;;;;;14.55;7.82;;;;;;;15.80;47.63;98270.72;4965612;28;20547;-77
2022/04/26 10:18:33;;;;;;;26.08;9.20;;;;;;;15.73;47.74;98265.78;4955649;28;20590;-79
2022/04/26 10:21:01;;;;;;;16.88;9.20;;;;;;;15.76;47.55;98280.84;4955420;28;20149;-77
2022/04/26 10:23:27;;;;;;;;;;;;;;;15.70;47.67;98276.72;4954156;28;20050;-78
2022/04/26 10:26:23;;;;;;;20.13;8.38;;;;;;;15.66;47.84;98271.09;4984570;28;19925;-79
2022/04/26 10:28:52;;;;;;;20.07;8.23;;;;;;;15.71;47.75;98272.81;4951142;28;20444;-78
2022/04/26 10:31:22;;;;;;;18.92;7.13;;;;;;;15.62;48.16;98274.88;4939723;28;20062;-78
2022/04/26 10:33:48;;;;;;;20.08;7.88;;;;;;;15.62;48.02;98283.97;4955151;28;20050;-78
2022/04/26 10:36:34;;;;;;;17.23;7.45;;;;;;;15.67;48.52;98271.88;4955136;28;20047;-79
2022/04/26 10:39:36;;;;;;;16.15;8.10;;;;;;;15.60;48.70;98265.03;4964445;28;20054;-77
2022/04/26 10:42:22;;;;;;;18.27;8.02;;;;;;;15.62;49.35;98281.22;4966431;28;20047;-75
2022/04/26 10:44:49;;;;;;;23.70;8.85;;;;;;;15.62;48.93;98258.34;4964755;28;20070;-75
2022/04/26 10:47:34;;;;;;;18.85;7.85;;;;;;;15.69;48.74;98267.66;4949424;28;20055;-75
2022/04/26 10:50:00;;;;;;;17.35;8.38;;;;;;;15.77;49.08;98262.38;4941336;28;20074;-75
2022/04/26 10:52:51;;;;;;;15.25;7.35;;;;;;;15.75;48.77;98262.72;4951748;28;20101;-80
2022/04/26 10:55:24;;;;;;;22.08;7.28;;;;;;;15.78;48.91;98266.72;4936053;28;20054;-76
2022/04/26 10:57:51;;;;;;;15.45;7.30;;;;;;;15.70;48.56;98274.75;4969343;28;20047;-75
2022/04/26 11:07:14;;;;;;;15.70;7.72;;;;;;;15.16;48.97;98218.00;5098232;23;20046;-76
2022/04/26 11:10:13;;;;;;;15.10;7.13;;;;;;;15.14;48.99;98215.59;5003704;28;20054;-76
2022/04/26 11:16:25;;;;;;;23.52;7.40;;;;;;;15.50;49.21;98253.66;4990306;28;20514;-74
2022/04/26 11:20:08;;;;;;;;;;;;;;;;;;;;;
2022/04/26 11:22:55;;;;;;;20.42;7.88;;;;;;;15.78;49.06;98277.75;5001057;28;20564;-73
2022/04/26 11:28:18;;;;;;;21.98;7.45;;;;;;;15.75;49.30;98270.97;4986790;28;20053;-72
2022/04/26 11:30:57;;;;;;;24.23;7.30;;;;;;;15.82;48.95;98281.41;4967617;28;20484;-73
2022/04/26 11:33:32;;;;;;;22.50;7.88;;;;;;;15.82;48.93;98273.16;5001987;28;20052;-73
2022/04/26 11:36:00;;;;;;;21.27;8.27;;;;;;;15.80;49.09;98275.44;4999001;28;20575;-73
2022/04/26 11:38:28;;;;;;;17.10;7.43;;;;;;;15.83;49.16;98264.50;4999783;28;20140;-73
2022/04/26 11:40:58;;;;;;;13.85;6.35;;;;;;;15.86;49.02;98268.53;4984238;28;20149;-73
2022/04/26 11:43:33;;;;;;;16.35;6.82;;;;;;;15.90;49.03;98257.66;5000779;28;20092;-72
2022/04/26 11:46:01;;;;;;;12.88;6.57;;;;;;;15.91;48.97;98257.28;5005739;28;20507;-74
2022/04/26 11:48:29;;;;;;;;;;;;;;;15.98;49.04;98254.75;5002394;28;20038;-73
2022/04/26 11:50:57;;;;;;;20.63;7.90;;;;;;;15.96;48.63;98242.47;4988867;28;19933;-73
2022/04/26 11:53:23;;;;;;;;;;;;;;;16.08;49.15;98252.66;5005260;28;20133;-72
2022/04/26 11:55:54;;;;;;;19.75;8.00;;;;;;;15.97;48.96;98255.91;5005866;28;19987;-72
2022/04/26 11:58:47;;;;;;;22.52;8.25;;;;;;;15.98;49.26;98253.94;5019601;28;20046;-74
2022/04/26 12:01:21;;;;;;;20.92;8.43;;;;;;;15.99;49.18;98247.28;4991466;28;20056;-74
2022/04/26 12:03:49;;;;;;;16.90;7.65;;;;;;;15.93;49.19;98245.94;5010276;28;20168;-73
2022/04/26 12:06:17;;;;;;;21.98;9.13;;;;;;;16.02;48.93;98235.59;5004205;28;20925;-73
2022/04/26 12:08:47;;;;;;;;;;;;;;;16.12;49.23;98243.34;5029374;28;22078;-76
2022/04/26 12:11:20;;;;;;;27.83;9.45;;;;;;;16.14;49.06;98246.53;5022779;28;20016;-73
2022/04/26 12:13:59;;;;;;;26.27;9.95;;;;;;;16.10;49.11;98237.38;5009735;28;20072;-76
2022/04/26 12:16:26;;;;;;;21.27;8.98;;;;;;;16.14;49.13;98235.50;4990951;28;20045;-77
2022/04/26 12:18:54;;;;;;;22.65;9.60;;;;;;;16.24;48.93;98236.19;5018197;28;20050;-78
2022/04/26 12:21:21;;;;;;;20.65;9.95;;;;;;;16.31;49.16;98233.59;4989606;28;20510;-78
2022/04/26 12:23:48;;;;;;;;;;;;;;;16.33;49.24;98242.34;4981527;28;20280;-77
2022/04/26 12:26:14;;;;;;;41.78;9.10;;;;;;;16.30;49.30;98226.50;5000639;28;19968;-79
2022/04/26 12:32:23;;;;;;;19.40;8.65;;;;;;;16.46;49.13;98226.53;4940951;28;20061;-76
2022/04/26 12:34:51;;;;;;;22.35;8.18;;;;;;;16.53;48.46;98236.97;5026973;28;20468;-74
2022/04/26 12:41:05;;;;;;;20.05;8.68;;;;;;;16.34;49.27;98182.47;4922862;29;20075;-78
2022/04/26 12:43:33;;;;;;;18.27;7.70;;;;;;;16.85;53.77;98226.75;4946394;28;20046;-78
2022/04/26 12:46:15;;;;;;;18.50;9.90;;;;;;;16.91;52.20;98241.09;5185414;27;20131;-77
2022/04/26 12:52:00;;;;;;;28.08;9.38;;;;;;;16.91;50.25;98235.59;5062777;27;20134;-79
2022/04/26 12:54:26;;;;;;;29.38;11.13;;;;;;;16.92;50.21;98241.91;5128690;27;20057;-75
2022/04/26 12:57:00;;;;;;;28.20;10.45;;;;;;;16.92;50.14;98234.41;5126023;27;20411;-78
2022/04/26 12:59:38;;;;;;;22.95;11.50;;;;;;;16.94;50.45;98234.91;5126025;27;20423;-79
2022/04/26 13:02:07;;;;;;;25.20;11.15;;;;;;;16.97;50.74;98239.69;5110174;27;20544;-79
2022/04/26 13:04:34;;;;;;;19.85;9.48;;;;;;;16.71;50.83;98204.34;5105311;28;20054;-82
2022/04/26 13:07:00;;;;;;;26.08;10.30;;;;;;;16.95;50.51;98228.22;5130352;27;20511;-81
2022/04/26 13:09:28;;;;;;;22.05;10.77;;;;;;;16.99;50.43;98237.41;5106869;27;20495;-80
2022/04/26 13:12:21;;;;;;;27.08;10.77;;;;;;;16.90;50.20;98228.47;5095066;27;20042;-81
2022/04/26 13:14:55;;;;;;;22.45;9.20;;;;;;;16.85;49.74;98232.28;5109262;27;20054;-83
2022/04/26 13:17:53;;;;;;;21.67;10.73;;;;;;;16.39;50.13;98165.66;5125477;27;20160;-78
2022/04/26 13:20:20;;;;;;;26.80;9.38;;;;;;;16.77;49.82;98236.03;5109460;27;20472;-75
2022/04/26 13:22:46;;;;;;;24.55;10.43;;;;;;;16.80;49.82;98237.28;5128132;27;20135;-76
2022/04/26 13:25:13;;;;;;;24.48;8.73;;;;;;;16.80;49.72;98235.31;5145471;27;20043;-77
2022/04/26 13:27:41;;;;;;;27.77;9.73;;;;;;;16.81;49.68;98236.13;5104344;27;20035;-78
2022/04/26 13:30:11;;;;;;;17.67;7.47;;;;;;;16.89;50.15;98240.66;5124971;27;20072;-77
2022/04/26 13:32:38;;;;;;;21.35;9.38;;;;;;;16.94;49.93;98242.34;5133696;27;20589;-76
2022/04/26 13:35:05;;;;;;;24.00;9.63;;;;;;;16.93;50.10;98238.78;5135301;27;20053;-75
2022/04/26 13:37:32;;;;;;;29.25;8.95;;;;;;;16.97;49.82;98234.19;5111272;27;20046;-76
2022/04/26 13:40:00;;;;;;;29.58;9.52;;;;;;;16.99;50.00;98237.41;5105420;28;20507;-76
2022/04/26 13:42:27;;;;;;;22.73;8.65;;;;;;;17.01;49.34;98234.28;5122399;27;20046;-76
2022/04/26 13:44:54;;;;;;;27.83;9.50;;;;;;;17.02;49.08;98235.91;5123416;27;20057;-76
2022/04/26 13:47:21;;;;;;;25.83;8.80;;;;;;;17.00;49.56;98230.72;5120844;27;20143;-77
2022/04/26 13:49:47;;;;;;;25.98;8.80;;;;;;;17.07;49.75;98232.06;5106251;27;20031;-77
2022/04/26 13:52:13;;;;;;;32.20;10.75;;;;;;;17.08;49.29;98233.66;5104205;27;20427;-74
2022/04/26 13:54:43;;;;;;;17.98;8.18;;;;;;;17.13;49.31;98239.72;5102897;27;20575;-75
2022/04/26 13:57:10;;;;;;;22.50;8.15;;;;;;;17.14;48.97;98240.53;5108759;28;20567;-75
2022/04/26 13:59:37;;;;;;;23.75;7.68;;;;;;;17.09;48.76;98236.06;5130924;28;20054;-74
2022/04/26 14:02:04;;;;;;;23.73;8.38;;;;;;;17.17;48.45;98234.28;5110636;28;20138;-74
2022/04/26 14:04:31;;;;;;;21.83;9.88;;;;;;;17.20;48.26;98232.78;5104840;28;20138;-73
2022/04/26 14:06:57;;;;;;;22.88;9.65;;;;;;;17.18;47.96;98226.81;5097758;28;20066;-75
2022/04/26 14:09:23;;;;;;;22.88;9.13;;;;;;;17.18;47.44;98224.84;5097449;28;20039;-76
2022/04/26 14:11:55;;;;;;;26.13;8.88;;;;;;;17.23;47.39;98224.56;5098881;28;20040;-74
2022/04/26 14:22:53;;;;;;;23.00;8.60;;;;;;;17.33;47.82;98231.53;5128373;27;20051;-75
2022/04/26 14:25:20;;;;;;;23.55;8.63;;;;;;;17.36;47.63;98232.75;5106503;28;20059;-74
2022/04/26 14:27:49;;;;;;;19.90;9.07;;;;;;;17.38;48.42;98230.41;5121385;27;20043;-74
2022/04/26 14:30:16;;;;;;;18.38;7.43;;;;;;;17.35;48.09;98239.44;5149920;27;20081;-74
2022/04/26 14:32:44;;;;;;;16.67;6.65;;;;;;;17.39;48.26;98238.38;5136505;27;20426;-74
2022/04/26 14:35:31;;;;;;;21.17;7.82;;;;;;;17.39;47.83;98243.06;5125113;28;20078;-75
2022/04/26 14:37:58;;;;;;;15.75;7.45;;;;;;;17.34;48.05;98241.41;5129677;28;20043;-75
2022/04/26 14:40:58;;;;;;;22.63;7.53;;;;;;;17.31;47.43;98244.06;5094953;28;20055;-76
2022/04/26 14:43:32;;;;;;;26.42;8.00;;;;;;;17.31;47.30;98246.84;5096838;28;20522;-74
2022/04/26 14:46:01;;;;;;;21.60;8.55;;;;;;;17.26;47.25;98245.16;5128606;28;20047;-74
2022/04/26 14:48:30;;;;;;;28.20;8.82;;;;;;;17.09;46.82;98222.25;5111774;28;20070;-74
2022/04/26 14:51:00;;;;;;;23.55;8.80;;;;;;;17.12;47.02;98240.88;5125175;28;20433;-73
2022/04/26 14:53:29;;;;;;;27.30;8.48;;;;;;;17.14;47.08;98243.28;5107045;28;20044;-73
2022/04/26 14:55:58;;;;;;;31.13;9.35;;;;;;;17.07;46.68;98243.09;5127183;28;20054;-73
2022/04/26 14:58:25;;;;;;;20.45;7.80;;;;;;;17.08;46.98;98241.94;5127287;27;20517;-73
2022/04/26 15:00:54;;;;;;;18.85;7.13;;;;;;;17.12;46.43;98240.88;5129915;28;20054;-74
2022/04/26 15:03:21;;;;;;;25.27;7.25;;;;;;;17.10;46.98;98240.44;5129681;28;20431;-75
2022/04/26 15:05:47;;;;;;;21.48;7.20;;;;;;;17.09;46.52;98247.13;5122252;28;20077;-74
2022/04/26 15:10:58;;;;;;;28.58;7.05;;;;;;;16.94;46.35;98237.66;5123540;28;20104;-73
2022/04/26 15:18:58;;;;;;;23.65;6.75;;;;;;;16.88;46.07;98247.34;5115691;28;20047;-74
2022/04/26 15:21:24;;;;;;;21.20;6.53;;;;;;;16.92;46.58;98244.69;5089822;28;20066;-74
2022/04/26 15:23:53;;;;;;;36.30;6.80;;;;;;;16.86;46.75;98244.94;5086133;28;20047;-74
2022/04/26 15:26:21;;;;;;;21.40;8.32;;;;;;;16.89;47.01;98254.47;5095738;28;20039;-76
2022/04/26 15:28:50;;;;;;;17.42;7.00;;;;;;;16.81;46.67;98247.94;5130606;28;20574;-76
2022/04/26 15:35:28;;;;;;;19.93;7.00;;;;;;;16.80;47.17;98251.88;5111783;28;20043;-77
2022/04/26 15:42:39;;;;;;;23.83;7.47;;;;;;;16.56;46.54;98248.13;5065866;28;20043;-77
2022/04/26 15:46:35;;;;;;;23.08;7.05;;;;;;;16.34;46.49;98215.56;5067143;28;20450;-78
2022/04/26 15:48:57;;;;;;;21.52;8.27;;;;;;;16.64;46.40;98271.19;5009581;28;20042;-75
2022/04/26 15:51:25;;;;;;;26.02;8.48;;;;;;;16.59;46.17;98269.47;5069317;28;20500;-76
2022/04/26 15:53:51;;;;;;;19.48;8.20;;;;;;;16.43;46.35;98247.34;5091973;28;20582;-77
2022/04/26 15:56:18;;;;;;;20.73;7.70;;;;;;;16.51;45.90;98267.66;5065263;28;20074;-75
2022/04/26 15:58:44;;;;;;;24.08;7.25;;;;;;;16.45;46.01;98249.78;5086216;28;20044;-76
2022/04/26 16:01:12;;;;;;;18.02;6.88;;;;;;;16.55;46.23;98276.03;5086548;28;20067;-75
2022/04/26 16:03:39;;;;;;;21.75;6.88;;;;;;;16.52;45.72;98277.53;5064806;28;20044;-75
2022/04/26 16:06:05;;;;;;;31.52;7.53;;;;;;;16.50;45.75;98282.59;5063362;28;20062;-75
2022/04/26 16:08:35;;;;;;;21.85;6.35;;;;;;;16.42;45.82;98287.13;5072368;28;20044;-77
2022/04/26 16:22:21;;;;;;;20.10;6.13;;;;;;;16.23;45.89;98298.78;5019920;28;20042;-78
2022/04/26 16:24:48;;;;;;;20.13;6.13;;;;;;;16.24;46.18;98288.56;5070724;28;20089;-77
2022/04/26 16:27:14;;;;;;;20.58;6.10;;;;;;;16.29;46.43;98300.16;5075928;28;20178;-78